Corrigan, TX (75939)

10:04 PM CST on February 19, 2017 (GMT -0600)
MUR108 | | Change Station

Elev 216 ft 31.01 °N, 94.83 °W | Updated 12 hours ago

Overcast
Overcast
70.0 °F
Feels Like 70.0 °F
N
-
Wind Variable Wind from North

Today
High -- | Low -- °F
--% Chance of Precip.
Yesterday
High -- | Low -- °F
Precip. -- in
Pressure 29.93 in
Visibility 10.0 miles
Clouds Overcast 2200 ft
Dew Point Not available.
Humidity Not available.
Rainfall in
Snow Depth Not available.
6:56 AM 6:10 PM
Last Quarter, 37% visible
METAR KLFK 200353Z AUTO 14008KT 10SM OVC022 21/18 A2993 RMK AO2 SLP133 T02060178
Pressure 29.93 in
Visibility 10.0 miles
Clouds Overcast 2200 ft
Dew Point Not available.
Humidity Not available.
Rainfall in
Snow Depth Not available.
6:56 AM 6:10 PM
Last Quarter, 37% visible
METAR KLFK 200353Z AUTO 14008KT 10SM OVC022 21/18 A2993 RMK AO2 SLP133 T02060178

Get Your Daily Forecast Email!

Thanks for signing up!

Be on the lookout for a verification email in your inbox.

You'll start receiving the daily forecast at 8 AM.

×

10-Day Weather Forecast

Almanac

Astronomy

Feb. 19, 2017 Rise Set
Actual Time
Civil Twilight
Nautical Twilight
Astronomical Twilight
Moon
Length of Visible Light
Length of Day
Tomorrow will be .
, % of the Moon is Illuminated

Today's Extremes

State Highs State Lows

Community

WunderPhotos

Upload Photos

1,962,540 photos uploaded!

WunderBlog® & News

Nearby

Air Quality

  Air Quality AQ Index Pollutant
Not available.

Snow Depth

Station Depth Elevation

Earthquake Activity

City Distance Mag. Time & Date
Minimum magnitude displayed is 2.5.

Coastal Water Temperatures

Place Temperature

Stations

Nearby Weather Stations

Station Location Temp. Windchill Dew Point Humidity Wind Precip. Elev Updated Type
                   

Watches & Warnings

There are currently no watches in effect.